Time;durP1;ratioP1;P1;durP2;ratioP2;P2;SDS_P1;SDS_P2;PMS_P1;PMS_P2;Temp;Humidity;BMP_temperature;BMP_pressure;BME280_temperature;BME280_humidity;BME280_pressure;Samples;Min_cycle;Max_cycle;Signal;HPM_P1;HPM_P2
2021/11/11 00:00:50;;;;;;;13.67;8.80;;;10.00;72.70;;;;;;5060175;28;20440;-81
2021/11/11 00:03:17;;;;;;;16.77;7.37;;;9.90;72.60;;;;;;5048801;28;20029;-80
2021/11/11 00:05:42;;;;;;;13.70;7.17;;;9.90;72.80;;;;;;5066064;28;20059;-81
2021/11/11 00:08:08;;;;;;;13.97;7.60;;;9.90;72.60;;;;;;5047352;28;20029;-80
2021/11/11 00:10:35;;;;;;;16.37;7.77;;;9.90;72.60;;;;;;5061437;28;20043;-80
2021/11/11 00:13:01;;;;;;;14.00;8.03;;;9.90;72.50;;;;;;5038826;28;20040;-81
2021/11/11 00:15:27;;;;;;;14.73;8.07;;;9.80;72.70;;;;;;5049095;28;20425;-81
2021/11/11 00:17:53;;;;;;;13.13;7.33;;;9.90;72.70;;;;;;5052260;28;20056;-81
2021/11/11 00:20:22;;;;;;;14.17;7.53;;;9.90;72.70;;;;;;5043615;28;20025;-81
2021/11/11 00:22:49;;;;;;;9.80;6.53;;;9.90;72.30;;;;;;5052339;28;20039;-80
2021/11/11 00:25:17;;;;;;;13.77;8.63;;;9.80;72.20;;;;;;5045363;28;20112;-80
2021/11/11 00:27:44;;;;;;;13.23;7.87;;;9.70;72.70;;;;;;5051729;28;20453;-80
2021/11/11 00:30:12;;;;;;;16.03;8.40;;;9.70;72.90;;;;;;5062778;28;20033;-81
2021/11/11 00:32:39;;;;;;;13.93;7.30;;;9.80;73.10;;;;;;5045252;28;20079;-81
2021/11/11 00:35:07;;;;;;;14.40;6.27;;;9.80;72.50;;;;;;5027370;28;20052;-81
2021/11/11 00:37:34;;;;;;;12.43;6.80;;;9.80;72.30;;;;;;5049593;28;20026;-81
2021/11/11 00:39:59;;;;;;;13.23;7.10;;;9.70;72.20;;;;;;5068441;28;20494;-80
2021/11/11 00:42:25;;;;;;;13.53;6.90;;;9.60;72.40;;;;;;5054354;28;20134;-80
2021/11/11 00:44:51;;;;;;;13.47;7.37;;;9.60;72.70;;;;;;5048272;28;20032;-81
2021/11/11 00:47:17;;;;;;;14.83;7.20;;;9.50;73.10;;;;;;5032790;28;20037;-81
2021/11/11 00:49:44;;;;;;;14.10;8.27;;;9.60;73.20;;;;;;5052938;28;20060;-80
2021/11/11 00:52:11;;;;;;;18.20;7.70;;;9.70;73.10;;;;;;5066002;28;20033;-81
2021/11/11 00:54:39;;;;;;;15.70;7.77;;;9.80;73.10;;;;;;5050869;28;20375;-81
2021/11/11 00:57:06;;;;;;;14.00;8.23;;;9.80;72.90;;;;;;5048775;28;20412;-81
2021/11/11 00:59:32;;;;;;;12.03;7.30;;;9.80;72.80;;;;;;5053485;28;20037;-80
2021/11/11 01:01:58;;;;;;;11.30;5.40;;;9.90;72.80;;;;;;5046015;28;20028;-80
2021/11/11 01:04:24;;;;;;;11.10;6.57;;;9.80;72.10;;;;;;5039908;28;20040;-80
2021/11/11 01:06:50;;;;;;;15.87;7.03;;;9.60;72.50;;;;;;5048756;28;20043;-80
2021/11/11 01:09:16;;;;;;;15.30;6.63;;;9.60;73.20;;;;;;5050801;28;20123;-81
2021/11/11 01:11:43;;;;;;;15.50;7.77;;;9.70;73.00;;;;;;5045021;28;20171;-81
2021/11/11 01:14:09;;;;;;;14.20;7.37;;;9.80;72.90;;;;;;5029299;28;20071;-81
2021/11/11 01:16:35;;;;;;;14.20;7.63;;;9.90;72.70;;;;;;5048408;28;20024;-81
2021/11/11 01:19:00;;;;;;;13.37;7.10;;;9.80;72.50;;;;;;5049458;28;20035;-81
2021/11/11 01:21:26;;;;;;;15.90;7.27;;;9.90;72.50;;;;;;5030419;28;20036;-81
2021/11/11 01:23:54;;;;;;;17.70;7.57;;;9.90;72.30;;;;;;5043456;28;20663;-81
2021/11/11 01:26:20;;;;;;;13.10;7.10;;;9.80;72.40;;;;;;5044675;28;20064;-80
2021/11/11 01:28:46;;;;;;;17.93;7.40;;;9.90;73.00;;;;;;5041436;28;20056;-81
2021/11/11 01:31:11;;;;;;;17.40;6.93;;;9.80;72.50;;;;;;5039302;28;20047;-81
2021/11/11 01:33:37;;;;;;;14.63;6.57;;;9.80;72.60;;;;;;5045708;28;20029;-81
2021/11/11 01:36:03;;;;;;;14.57;7.07;;;9.90;72.40;;;;;;5045438;28;20037;-81
2021/11/11 01:38:29;;;;;;;15.10;6.50;;;10.00;72.40;;;;;;5045406;28;20025;-80
2021/11/11 01:40:55;;;;;;;14.57;7.07;;;10.00;72.20;;;;;;5051009;28;20396;-81
2021/11/11 01:43:20;;;;;;;14.00;5.47;;;10.00;72.10;;;;;;5034503;28;20037;-81
2021/11/11 01:45:46;;;;;;;11.20;5.20;;;10.00;71.80;;;;;;5035157;28;20039;-80
2021/11/11 01:48:15;;;;;;;8.33;5.43;;;9.90;71.70;;;;;;5048128;28;20028;-81
2021/11/11 01:50:42;;;;;;;12.10;6.47;;;9.80;71.40;;;;;;5051998;28;20037;-80
2021/11/11 01:53:09;;;;;;;10.23;5.10;;;9.70;71.70;;;;;;5058562;28;20036;-81
2021/11/11 01:55:37;;;;;;;9.07;4.67;;;9.70;71.60;;;;;;5057559;28;20070;-81
2021/11/11 01:58:03;;;;;;;10.53;5.37;;;9.60;71.70;;;;;;5045682;28;20017;-80
2021/11/11 02:00:33;;;;;;;11.60;6.33;;;9.50;71.60;;;;;;5042994;28;20032;-80
2021/11/11 02:03:05;;;;;;;14.67;4.90;;;9.50;72.00;;;;;;5046836;28;20024;-80
2021/11/11 02:05:31;;;;;;;8.35;4.68;;;9.50;72.00;;;;;;5039343;28;20029;-80
2021/11/11 02:07:58;;;;;;;9.93;5.10;;;9.50;71.70;;;;;;5031511;28;20964;-80
2021/11/11 02:10:25;;;;;;;11.50;5.37;;;9.40;71.70;;;;;;5051011;28;20059;-81
2021/11/11 02:12:52;;;;;;;10.00;4.97;;;9.30;71.80;;;;;;5033381;28;20033;-81
2021/11/11 02:15:19;;;;;;;9.97;4.73;;;9.40;72.10;;;;;;5047511;28;20041;-80
2021/11/11 02:17:45;;;;;;;11.20;5.37;;;9.30;71.60;;;;;;5043697;28;20021;-81
2021/11/11 02:20:16;;;;;;;10.03;5.50;;;9.20;72.40;;;;;;5047429;28;20477;-80
2021/11/11 02:22:42;;;;;;;10.73;5.60;;;9.20;72.10;;;;;;5079057;28;20024;-81
2021/11/11 02:25:09;;;;;;;6.10;4.10;;;9.20;72.70;;;;;;5052347;28;20025;-80
2021/11/11 02:27:35;;;;;;;12.67;6.23;;;9.40;73.00;;;;;;5027045;28;20049;-80
2021/11/11 02:30:04;;;;;;;14.17;4.53;;;9.50;72.10;;;;;;5045695;28;20532;-80
2021/11/11 02:32:31;;;;;;;11.97;5.03;;;9.40;72.10;;;;;;5010088;28;20029;-80
2021/11/11 02:34:57;;;;;;;9.77;4.97;;;9.40;72.20;;;;;;5047704;28;20038;-81
2021/11/11 02:37:27;;;;;;;13.40;5.83;;;9.30;72.60;;;;;;5034806;28;20751;-81
2021/11/11 02:39:53;;;;;;;10.20;5.80;;;9.40;72.90;;;;;;5052646;28;20491;-80
2021/11/11 02:42:20;;;;;;;12.30;6.30;;;9.50;72.90;;;;;;5066730;28;20017;-81
2021/11/11 02:44:45;;;;;;;13.50;7.13;;;9.50;72.90;;;;;;5050857;28;20484;-81
2021/11/11 02:47:11;;;;;;;16.60;7.17;;;9.60;72.80;;;;;;5059519;28;20025;-80
2021/11/11 02:49:37;;;;;;;12.47;6.33;;;9.60;72.60;;;;;;5040913;28;20029;-81
2021/11/11 02:52:04;;;;;;;7.67;5.33;;;9.70;72.50;;;;;;5053121;28;20037;-81
2021/11/11 02:54:38;;;;;;;10.73;5.80;;;9.80;72.30;;;;;;5049571;28;20036;-81
2021/11/11 02:57:17;;;;;;;10.83;5.73;;;9.90;71.90;;;;;;5044975;28;20066;-80
2021/11/11 02:59:43;;;;;;;15.37;6.23;;;9.90;71.70;;;;;;5057953;28;20025;-80
2021/11/11 03:02:27;;;;;;;7.60;4.17;;;10.00;71.70;;;;;;5072272;28;20512;-81
2021/11/11 03:04:54;;;;;;;9.23;3.80;;;10.00;71.40;;;;;;5042923;28;20137;-81
2021/11/11 03:07:20;;;;;;;7.00;3.80;;;10.10;71.40;;;;;;5067268;28;20027;-80
2021/11/11 03:09:48;;;;;;;10.00;4.40;;;10.20;70.70;;;;;;5031904;28;20526;-81
2021/11/11 03:12:14;;;;;;;10.27;5.33;;;10.10;70.60;;;;;;5036595;28;20025;-81
2021/11/11 03:14:40;;;;;;;9.80;5.40;;;10.00;70.60;;;;;;5055208;28;20021;-78
2021/11/11 03:17:08;;;;;;;11.50;6.67;;;9.90;70.90;;;;;;5050914;28;20021;-79
2021/11/11 03:19:34;;;;;;;9.40;5.53;;;9.90;71.20;;;;;;5072038;28;20071;-79
2021/11/11 03:22:09;;;;;;;11.27;6.27;;;9.90;71.40;;;;;;5054745;28;20447;-79
2021/11/11 03:24:36;;;;;;;14.73;6.40;;;10.00;71.40;;;;;;5043479;28;20057;-80
2021/11/11 03:27:03;;;;;;;12.87;7.33;;;10.10;71.00;;;;;;5053238;28;20033;-80
2021/11/11 03:29:30;;;;;;;11.93;6.77;;;10.00;70.60;;;;;;5048393;28;20041;-79
2021/11/11 03:31:56;;;;;;;9.47;5.93;;;9.90;70.70;;;;;;5052729;28;20124;-80
2021/11/11 03:34:23;;;;;;;14.07;6.60;;;9.90;70.80;;;;;;5055702;28;20086;-80
2021/11/11 03:36:50;;;;;;;11.63;5.70;;;9.90;70.70;;;;;;5054409;28;20052;-80
2021/11/11 03:39:17;;;;;;;10.73;5.90;;;10.00;70.80;;;;;;5055242;28;20107;-79
2021/11/11 03:41:42;;;;;;;16.70;6.33;;;10.00;70.50;;;;;;5053185;28;20029;-79
2021/11/11 03:44:08;;;;;;;17.83;6.37;;;9.90;70.50;;;;;;5044749;28;20033;-79
2021/11/11 03:46:34;;;;;;;10.33;5.67;;;9.90;70.60;;;;;;5046105;28;20032;-79
2021/11/11 03:49:00;;;;;;;11.83;5.30;;;10.00;70.60;;;;;;5055351;28;20487;-79
2021/11/11 03:51:26;;;;;;;16.00;6.20;;;10.00;70.30;;;;;;5050769;28;20082;-80
2021/11/11 03:53:52;;;;;;;10.57;5.60;;;10.00;70.30;;;;;;5053031;28;20108;-79
2021/11/11 03:56:18;;;;;;;9.17;6.03;;;10.00;70.20;;;;;;5055148;28;20028;-80
2021/11/11 03:58:46;;;;;;;12.10;5.87;;;10.00;70.20;;;;;;5041921;28;20025;-80
2021/11/11 04:01:12;;;;;;;15.23;6.13;;;10.00;70.10;;;;;;5063214;28;20021;-80
2021/11/11 04:03:38;;;;;;;13.43;5.50;;;10.00;70.10;;;;;;5063883;28;20033;-80
2021/11/11 04:06:04;;;;;;;13.70;5.80;;;9.90;70.00;;;;;;5053993;28;20182;-80
2021/11/11 04:08:31;;;;;;;10.90;5.00;;;9.90;70.30;;;;;;5068551;28;20098;-79
2021/11/11 04:10:57;;;;;;;11.40;5.27;;;9.90;69.90;;;;;;5052707;28;20482;-79
2021/11/11 04:13:23;;;;;;;12.73;5.87;;;10.00;70.20;;;;;;5040994;28;20044;-80
2021/11/11 04:15:50;;;;;;;12.33;6.27;;;9.80;69.80;;;;;;5061369;28;20025;-80
2021/11/11 04:18:16;;;;;;;11.17;5.30;;;9.80;70.00;;;;;;5038516;28;20032;-80
2021/11/11 04:20:42;;;;;;;11.03;5.53;;;9.70;70.30;;;;;;5041577;28;20083;-80
2021/11/11 04:23:08;;;;;;;13.13;6.37;;;9.80;70.60;;;;;;5041943;28;20081;-79
2021/11/11 04:25:45;;;;;;;13.00;5.97;;;9.80;70.40;;;;;;5026307;28;20476;-80
2021/11/11 04:28:28;;;;;;;11.67;5.37;;;9.90;70.30;;;;;;5052628;28;20048;-80
2021/11/11 04:30:59;;;;;;;12.37;5.87;;;9.90;69.80;;;;;;5061203;28;20060;-79
2021/11/11 04:33:25;;;;;;;10.90;6.43;;;9.90;69.90;;;;;;5049199;28;20029;-79
2021/11/11 04:35:56;;;;;;;11.20;5.67;;;9.90;69.90;;;;;;5050737;28;20510;-79
2021/11/11 05:02:36;;;;;;;8.63;4.73;;;10.20;68.90;;;;;;5042046;28;20033;-80
2021/11/11 05:05:02;;;;;;;10.63;4.90;;;10.30;69.20;;;;;;5031541;28;20364;-80
2021/11/11 05:07:27;;;;;;;12.63;5.07;;;10.60;68.70;;;;;;5024359;28;20031;-80
2021/11/11 05:09:53;;;;;;;9.57;5.17;;;10.80;67.70;;;;;;5044275;28;20028;-79
2021/11/11 05:12:19;;;;;;;8.77;4.93;;;10.80;67.30;;;;;;5053240;28;20425;-79
2021/11/11 05:14:45;;;;;;;10.83;5.10;;;10.60;67.30;;;;;;5052709;28;20037;-80
2021/11/11 05:17:10;;;;;;;5.97;4.23;;;10.40;67.20;;;;;;5045235;28;20028;-80
2021/11/11 05:19:38;;;;;;;8.87;4.77;;;10.20;68.10;;;;;;5043122;28;20036;-80
2021/11/11 05:22:04;;;;;;;6.17;3.93;;;10.10;68.70;;;;;;5030291;28;20029;-80
2021/11/11 05:24:31;;;;;;;12.67;4.40;;;10.20;69.00;;;;;;5050340;28;20029;-79
2021/11/11 05:27:03;;;;;;;9.70;4.80;;;10.30;69.00;;;;;;5065916;28;20028;-80
2021/11/11 05:29:30;;;;;;;13.02;5.55;;;10.50;68.20;;;;;;5026166;28;20044;-80
2021/11/11 05:31:55;;;;;;;12.70;4.93;;;10.50;67.80;;;;;;5044904;28;20028;-80
2021/11/11 05:34:22;;;;;;;8.13;4.43;;;10.60;67.60;;;;;;5050354;28;20506;-80
2021/11/11 05:36:48;;;;;;;11.53;4.47;;;10.60;67.40;;;;;;5049325;28;20412;-80
2021/11/11 05:39:14;;;;;;;9.27;4.87;;;10.60;67.30;;;;;;5036272;28;20195;-80
2021/11/11 05:41:40;;;;;;;8.10;4.80;;;10.60;67.30;;;;;;5062966;28;20029;-80
2021/11/11 05:44:06;;;;;;;11.17;4.90;;;10.60;67.10;;;;;;5068446;28;20033;-80
2021/11/11 05:46:32;;;;;;;8.93;4.67;;;10.50;67.10;;;;;;5065581;28;20029;-80
2021/11/11 05:48:58;;;;;;;11.20;4.40;;;10.40;67.20;;;;;;5039700;28;20048;-80
2021/11/11 05:51:24;;;;;;;8.03;4.57;;;10.20;67.90;;;;;;5037505;28;20048;-80
2021/11/11 05:53:50;;;;;;;7.23;4.43;;;10.10;68.00;;;;;;5036638;28;20034;-79
2021/11/11 05:56:16;;;;;;;7.13;4.70;;;10.00;68.00;;;;;;5068211;28;20103;-80
2021/11/11 05:58:41;;;;;;;9.40;4.67;;;9.90;68.70;;;;;;5036053;28;20029;-80
2021/11/11 06:01:07;;;;;;;15.37;6.87;;;9.90;68.60;;;;;;5028063;28;20039;-80
2021/11/11 06:03:33;;;;;;;10.30;5.00;;;9.90;68.70;;;;;;5046720;28;20025;-79
2021/11/11 06:05:59;;;;;;;12.67;5.97;;;10.00;68.80;;;;;;5064913;28;20086;-80
2021/11/11 06:08:24;;;;;;;11.73;6.67;;;10.00;68.80;;;;;;5041285;28;20447;-80
2021/11/11 06:10:50;;;;;;;13.40;6.30;;;10.00;68.70;;;;;;5042003;28;20037;-80
2021/11/11 06:13:16;;;;;;;19.60;6.70;;;10.10;68.80;;;;;;5056031;28;20676;-80
2021/11/11 06:15:42;;;;;;;14.73;5.93;;;10.10;68.50;;;;;;5051219;28;20157;-80
2021/11/11 06:18:10;;;;;;;8.50;5.23;;;10.10;68.50;;;;;;5028518;28;20427;-80
2021/11/11 06:20:42;;;;;;;14.33;6.27;;;10.10;68.40;;;;;;5042039;28;20049;-79
2021/11/11 06:23:08;;;;;;;15.07;7.00;;;10.10;68.30;;;;;;5032598;28;20043;-80
2021/11/11 06:25:34;;;;;;;12.77;6.73;;;10.10;68.30;;;;;;5045737;28;20029;-80
2021/11/11 06:28:01;;;;;;;11.50;5.07;;;10.00;68.30;;;;;;5042683;28;20447;-79
2021/11/11 06:30:27;;;;;;;11.70;4.27;;;10.10;68.60;;;;;;5055236;28;20036;-79
2021/11/11 06:32:52;;;;;;;9.23;5.33;;;10.20;68.50;;;;;;5037328;28;20488;-80
2021/11/11 06:35:18;;;;;;;7.07;5.03;;;10.40;68.50;;;;;;5055233;28;20032;-79
2021/11/11 06:37:44;;;;;;;12.20;5.17;;;10.50;67.70;;;;;;5035569;28;20044;-80
2021/11/11 06:40:10;;;;;;;11.97;6.30;;;10.50;67.50;;;;;;5055407;28;20092;-80
2021/11/11 06:42:36;;;;;;;10.77;4.67;;;10.60;67.50;;;;;;5048402;28;20710;-80
2021/11/11 06:45:03;;;;;;;7.80;5.73;;;10.80;67.30;;;;;;5035110;28;20036;-79
2021/11/11 06:47:29;;;;;;;8.47;4.97;;;11.00;66.50;;;;;;5033785;28;20377;-79
2021/11/11 06:49:55;;;;;;;8.70;5.27;;;11.00;66.40;;;;;;5033748;28;20040;-79
2021/11/11 06:52:20;;;;;;;14.50;5.77;;;11.00;66.30;;;;;;5042751;28;20542;-80
2021/11/11 06:54:47;;;;;;;12.97;5.47;;;11.00;66.10;;;;;;5041733;28;20477;-79
2021/11/11 06:57:13;;;;;;;10.63;5.30;;;11.00;66.30;;;;;;5034833;28;20022;-79
2021/11/11 06:59:39;;;;;;;10.00;5.13;;;10.90;66.10;;;;;;5017817;28;20477;-79
2021/11/11 07:02:05;;;;;;;8.97;4.63;;;10.90;66.20;;;;;;5033783;28;20389;-79
2021/11/11 07:04:30;;;;;;;13.47;5.17;;;10.90;66.10;;;;;;5033646;28;20034;-79
2021/11/11 07:06:56;;;;;;;13.17;5.80;;;10.90;66.00;;;;;;5039151;28;20024;-79
2021/11/11 07:09:22;;;;;;;14.53;7.77;;;10.90;66.00;;;;;;5057880;28;20029;-80
2021/11/11 07:11:47;;;;;;;15.60;5.80;;;10.80;66.20;;;;;;5054552;28;20502;-79
2021/11/11 07:14:13;;;;;;;12.13;4.73;;;10.80;66.10;;;;;;5035340;28;20388;-79
2021/11/11 07:16:40;;;;;;;9.33;4.97;;;10.70;66.40;;;;;;5044893;28;20017;-79
2021/11/11 07:19:05;;;;;;;12.43;5.57;;;10.70;66.50;;;;;;5034200;28;20025;-80
2021/11/11 07:21:31;;;;;;;16.03;6.67;;;10.80;66.70;;;;;;5037339;28;20101;-80
2021/11/11 07:23:57;;;;;;;11.90;5.53;;;10.80;66.40;;;;;;5037002;28;20435;-78
2021/11/11 07:26:23;;;;;;;14.50;6.23;;;10.80;66.10;;;;;;5035768;28;20033;-80
2021/11/11 07:28:48;;;;;;;14.80;6.77;;;10.80;66.00;;;;;;5021753;28;20087;-80
2021/11/11 07:31:19;;;;;;;11.47;5.73;;;10.80;65.90;;;;;;5029228;28;20230;-80
2021/11/11 07:33:45;;;;;;;11.13;5.03;;;10.80;65.80;;;;;;5024497;28;20040;-81
2021/11/11 07:36:11;;;;;;;7.00;4.83;;;10.80;65.60;;;;;;5030037;28;20034;-81
2021/11/11 07:38:36;;;;;;;10.63;6.03;;;10.80;65.80;;;;;;5030125;28;20032;-81
2021/11/11 07:41:02;;;;;;;12.70;5.53;;;10.80;65.70;;;;;;5030077;28;20140;-81
2021/11/11 07:43:28;;;;;;;12.20;5.80;;;10.80;65.90;;;;;;5016748;28;20033;-81
2021/11/11 07:45:54;;;;;;;10.93;5.83;;;10.90;65.90;;;;;;5034616;28;20025;-82
2021/11/11 07:48:21;;;;;;;13.67;6.27;;;10.90;65.90;;;;;;5033088;28;20021;-82
2021/11/11 07:50:47;;;;;;;14.60;8.10;;;10.80;65.80;;;;;;5030015;28;20033;-82
2021/11/11 07:53:12;;;;;;;10.90;6.77;;;10.70;66.30;;;;;;5032539;28;20116;-82
2021/11/11 07:55:41;;;;;;;13.30;7.47;;;10.40;67.30;;;;;;5036814;28;20030;-82
2021/11/11 07:58:08;;;;;;;12.37;5.80;;;10.50;67.80;;;;;;5025675;28;20093;-82
2021/11/11 08:00:35;;;;;;;16.63;6.50;;;10.60;67.80;;;;;;5042476;28;20013;-82
2021/11/11 08:03:01;;;;;;;13.53;7.20;;;10.70;67.50;;;;;;5028403;28;20366;-81
2021/11/11 08:05:27;;;;;;;9.80;5.67;;;10.80;67.50;;;;;;5031128;28;20028;-81
2021/11/11 08:07:53;;;;;;;9.33;4.50;;;10.90;67.40;;;;;;5024852;28;20036;-80
2021/11/11 08:10:20;;;;;;;9.83;5.33;;;11.00;67.10;;;;;;5016347;28;20092;-81
2021/11/11 08:12:46;;;;;;;13.57;6.73;;;11.10;66.90;;;;;;5038803;28;20422;-81
2021/11/11 08:15:14;;;;;;;11.70;5.57;;;11.30;66.50;;;;;;5027332;28;20030;-81
2021/11/11 08:17:39;;;;;;;9.20;4.60;;;11.40;66.50;;;;;;5011090;28;20034;-80
2021/11/11 08:20:07;;;;;;;7.63;4.93;;;11.60;66.40;;;;;;5033601;28;20357;-81
2021/11/11 08:22:33;;;;;;;9.27;4.83;;;11.70;65.80;;;;;;5031963;28;20655;-81
2021/11/11 08:25:01;;;;;;;13.10;4.60;;;11.70;65.60;;;;;;5032128;28;20440;-81
2021/11/11 08:27:27;;;;;;;11.07;6.23;;;11.90;65.50;;;;;;5019659;28;20052;-80
2021/11/11 08:29:54;;;;;;;9.93;5.10;;;12.00;64.70;;;;;;5035420;28;20025;-80
2021/11/11 08:32:20;;;;;;;10.33;5.00;;;12.00;64.60;;;;;;5044049;28;20024;-80
2021/11/11 08:34:49;;;;;;;9.23;5.00;;;12.10;64.40;;;;;;5072871;28;20082;-80
2021/11/11 08:37:16;;;;;;;8.10;5.23;;;12.30;63.90;;;;;;5067957;28;20488;-80
2021/11/11 08:39:42;;;;;;;10.50;5.43;;;12.40;63.90;;;;;;5069414;28;20482;-80
2021/11/11 08:42:10;;;;;;;6.63;4.80;;;12.70;63.50;;;;;;5032980;28;20053;-81
2021/11/11 08:44:44;;;;;;;12.90;5.50;;;13.10;62.80;;;;;;5017254;28;20044;-81
2021/11/11 08:47:12;;;;;;;8.83;4.93;;;13.20;61.90;;;;;;5049494;28;20032;-81
2021/11/11 08:49:39;;;;;;;9.53;5.50;;;13.30;61.30;;;;;;5034056;28;20067;-81
2021/11/11 08:52:05;;;;;;;9.40;4.30;;;13.20;60.80;;;;;;5048276;28;20033;-81
2021/11/11 08:54:31;;;;;;;10.93;4.70;;;13.20;60.50;;;;;;5053453;28;20118;-80
2021/11/11 08:56:58;;;;;;;9.17;5.00;;;13.00;60.20;;;;;;5061449;28;20059;-81
2021/11/11 08:59:25;;;;;;;10.30;4.93;;;12.90;60.30;;;;;;5028166;28;20499;-81
2021/11/11 09:01:53;;;;;;;8.67;4.60;;;12.90;60.50;;;;;;5018648;28;20048;-81
2021/11/11 09:04:21;;;;;;;7.73;4.43;;;12.80;60.30;;;;;;5053384;28;20108;-81
2021/11/11 09:06:48;;;;;;;16.33;3.97;;;12.90;60.30;;;;;;5030745;28;20036;-80
2021/11/11 09:09:15;;;;;;;11.93;4.63;;;13.00;60.50;;;;;;5038219;28;20027;-80
2021/11/11 09:11:42;;;;;;;8.43;4.90;;;13.20;60.10;;;;;;5026734;28;20121;-81
2021/11/11 09:14:08;;;;;;;10.53;5.27;;;13.40;59.60;;;;;;5051060;28;20028;-81
2021/11/11 09:16:35;;;;;;;12.47;5.13;;;13.50;59.30;;;;;;5033699;28;20052;-81
2021/11/11 09:19:05;;;;;;;12.23;5.27;;;13.60;59.00;;;;;;5056794;28;20119;-81
2021/11/11 09:21:32;;;;;;;10.55;4.93;;;13.90;59.00;;;;;;5041566;28;20021;-81
2021/11/11 09:23:57;;;;;;;12.20;5.97;;;14.00;58.90;;;;;;5061484;28;20448;-81
2021/11/11 09:26:24;;;;;;;10.32;5.15;;;14.20;58.70;;;;;;5046757;28;20040;-81
2021/11/11 09:28:50;;;;;;;10.70;4.50;;;14.50;58.10;;;;;;5067076;28;20071;-81
2021/11/11 09:31:17;;;;;;;7.43;4.45;;;14.50;57.40;;;;;;5050724;28;20068;-81
2021/11/11 09:33:44;;;;;;;15.75;4.93;;;14.50;56.90;;;;;;5046306;28;20033;-81
2021/11/11 09:36:15;;;;;;;10.80;4.90;;;14.60;56.70;;;;;;5050492;28;20033;-81
2021/11/11 09:38:41;;;;;;;10.77;4.82;;;14.70;56.30;;;;;;5033894;28;20024;-81
2021/11/11 09:41:10;;;;;;;13.88;4.90;;;14.80;56.30;;;;;;5050109;28;20060;-81
2021/11/11 09:43:39;;;;;;;12.82;5.53;;;15.00;56.20;;;;;;5048373;28;20100;-81
2021/11/11 09:46:07;;;;;;;10.35;5.00;;;15.20;56.10;;;;;;5020357;28;20055;-81
2021/11/11 09:48:34;;;;;;;8.30;5.80;;;15.50;56.00;;;;;;5031301;28;20460;-81
2021/11/11 09:51:01;;;;;;;12.07;4.53;;;15.60;55.70;;;;;;5038277;28;20431;-81
2021/11/11 09:53:29;;;;;;;10.13;5.28;;;15.60;55.70;;;;;;5029868;28;20059;-81
2021/11/11 10:01:09;;;;;;;9.38;5.00;;;16.20;54.80;;;;;;5057141;28;20025;-81
2021/11/11 10:03:41;;;;;;;12.00;6.05;;;16.30;54.40;;;;;;5026655;28;20480;-81
2021/11/11 10:06:11;;;;;;;10.20;4.60;;;16.50;54.20;;;;;;5048924;28;20017;-82
2021/11/11 10:08:42;;;;;;;6.88;4.47;;;16.70;54.10;;;;;;5032202;28;20113;-82
2021/11/11 10:11:12;;;;;;;10.30;4.50;;;16.70;53.70;;;;;;5041307;28;20091;-82
2021/11/11 10:13:38;;;;;;;10.05;4.68;;;16.80;53.10;;;;;;5050022;28;20037;-82
2021/11/11 10:16:22;;;;;;;11.55;4.15;;;16.80;52.80;;;;;;5028190;28;20156;-82
2021/11/11 10:18:54;;;;;;;10.65;4.30;;;17.00;51.90;;;;;;5034172;28;20590;-82
2021/11/11 10:21:50;;;;;;;17.02;5.25;;;17.20;51.80;;;;;;5051819;28;20021;-82
2021/11/11 10:24:25;;;;;;;8.02;3.90;;;17.40;51.40;;;;;;5047666;28;20029;-81
2021/11/11 10:27:08;;;;;;;8.15;4.05;;;17.50;50.80;;;;;;5033821;28;20476;-81
2021/11/11 10:29:50;;;;;;;11.75;4.57;;;17.80;50.90;;;;;;5045752;28;20037;-81
2021/11/11 10:32:29;;;;;;;9.00;4.78;;;17.90;50.10;;;;;;5044843;28;20047;-82
2021/11/11 10:35:15;;;;;;;13.73;4.70;;;18.00;49.60;;;;;;5031039;28;20503;-81
2021/11/11 10:37:57;;;;;;;10.18;4.43;;;18.10;49.30;;;;;;5034158;28;20025;-82
2021/11/11 10:40:29;;;;;;;7.70;4.47;;;18.00;49.20;;;;;;5049245;28;20514;-83
2021/11/11 10:42:55;;;;;;;11.27;5.28;;;17.90;49.90;;;;;;5041093;28;20022;-81
2021/11/11 10:45:27;;;;;;;9.80;5.10;;;18.10;49.60;;;;;;5032858;28;20028;-82
2021/11/11 10:47:55;;;;;;;7.10;4.10;;;18.10;49.50;;;;;;5048252;28;20032;-81
2021/11/11 10:50:25;;;;;;;11.82;4.47;;;18.10;49.40;;;;;;5029933;28;20715;-81
2021/11/11 10:53:18;;;;;;;9.70;4.60;;;18.20;49.10;;;;;;5062607;28;20044;-82
2021/11/11 10:55:53;;;;;;;9.43;4.15;;;18.10;49.10;;;;;;5049613;28;20099;-82
2021/11/11 10:58:21;;;;;;;9.05;4.72;;;18.20;49.30;;;;;;5051147;28;20095;-81
2021/11/11 11:01:00;;;;;;;15.10;5.00;;;18.30;49.10;;;;;;5046858;28;20099;-81
2021/11/11 11:03:31;;;;;;;14.32;4.63;;;18.40;49.10;;;;;;5036866;28;20671;-82
2021/11/11 11:05:58;;;;;;;13.33;5.60;;;18.40;49.10;;;;;;5054218;28;20048;-82
2021/11/11 11:08:29;;;;;;;11.18;4.68;;;18.50;49.10;;;;;;5047939;28;20624;-82
2021/11/11 11:11:05;;;;;;;10.80;4.80;;;18.60;49.00;;;;;;5041194;28;20037;-82
2021/11/11 11:13:40;;;;;;;8.32;4.10;;;18.70;48.80;;;;;;5053958;28;20052;-82
2021/11/11 11:16:10;;;;;;;9.60;4.82;;;18.80;48.50;;;;;;5051278;28;20069;-81
2021/11/11 11:18:42;;;;;;;8.55;4.80;;;18.90;48.30;;;;;;5078942;28;20025;-82
2021/11/11 11:21:17;;;;;;;13.20;4.00;;;19.00;48.20;;;;;;5033754;28;20064;-82
2021/11/11 11:23:45;;;;;;;11.75;5.40;;;19.10;47.50;;;;;;5073377;28;20033;-82
2021/11/11 11:26:13;;;;;;;13.25;4.18;;;19.10;47.70;;;;;;5063669;28;20534;-80
2021/11/11 11:28:50;;;;;;;10.50;4.22;;;19.10;48.00;;;;;;5067297;28;20087;-81
2021/11/11 11:31:26;;;;;;;8.10;4.00;;;19.30;47.80;;;;;;5044682;28;20050;-82
2021/11/11 11:33:53;;;;;;;10.02;4.82;;;19.30;47.60;;;;;;5018497;28;20479;-81
2021/11/11 11:36:32;;;;;;;14.20;4.60;;;19.20;47.60;;;;;;5021799;28;20033;-82
2021/11/11 11:38:58;;;;;;;10.80;4.57;;;19.30;47.70;;;;;;5028506;28;20033;-82
2021/11/11 11:41:34;;;;;;;13.20;5.72;;;19.40;47.90;;;;;;5068692;28;20356;-83
2021/11/11 11:44:16;;;;;;;14.02;4.78;;;19.50;47.30;;;;;;5041464;28;20036;-81
2021/11/11 11:46:42;;;;;;;14.00;5.70;;;19.40;47.50;;;;;;5053766;28;20048;-82
2021/11/11 11:49:08;;;;;;;7.65;4.05;;;19.40;47.20;;;;;;5036271;28;20033;-83
2021/11/11 11:51:35;;;;;;;12.15;4.05;;;19.40;46.80;;;;;;5038416;28;20087;-81
2021/11/11 11:56:31;;;;;;;12.00;4.40;;;19.50;46.50;;;;;;5058378;28;20115;-82
2021/11/11 11:59:02;;;;;;;11.27;5.00;;;19.60;46.40;;;;;;5073779;28;20021;-82
2021/11/11 12:01:57;;;;;;;5.28;3.90;;;19.60;46.20;;;;;;5044022;28;20064;-82
2021/11/11 12:09:45;;;;;;;;;;;19.50;46.10;;;;;;5060103;28;20108;-82
2021/11/11 12:15:17;;;;;;;6.88;3.58;;;19.50;46.90;;;;;;5037262;28;20040;-82
2021/11/11 12:40:27;;;;;;;10.18;3.65;;;19.40;46.30;;;;;;5058944;28;20490;-82
2021/11/11 12:42:56;;;;;;;11.32;3.95;;;19.40;46.10;;;;;;5044442;28;20388;-81
2021/11/11 12:45:31;;;;;;;12.15;4.47;;;19.40;46.20;;;;;;5047843;28;20033;-82
2021/11/11 12:48:19;;;;;;;15.82;4.93;;;19.40;46.20;;;;;;5020297;28;20037;-82
2021/11/11 12:51:02;;;;;;;10.02;4.72;;;19.30;46.40;;;;;;5063548;28;20739;-82
2021/11/11 12:53:45;;;;;;;9.23;4.43;;;19.20;46.70;;;;;;5046158;28;21022;-82
2021/11/11 12:56:18;;;;;;;10.63;4.72;;;19.20;46.40;;;;;;5054905;28;20416;-81
2021/11/11 12:59:05;;;;;;;8.00;4.80;;;19.00;46.60;;;;;;5026941;28;20033;-82
2021/11/11 13:01:51;;;;;;;11.60;4.45;;;19.00;46.90;;;;;;5035030;28;20048;-82
2021/11/11 13:04:21;;;;;;;10.48;4.50;;;19.00;46.80;;;;;;5024288;28;20017;-81
2021/11/11 13:06:59;;;;;;;8.00;4.10;;;19.00;47.00;;;;;;5053264;28;20024;-82
2021/11/11 13:09:34;;;;;;;7.93;4.28;;;19.00;47.10;;;;;;5052359;28;20025;-83
2021/11/11 13:12:06;;;;;;;15.05;4.20;;;19.00;47.10;;;;;;5070645;28;20024;-83
2021/11/11 13:14:33;;;;;;;9.45;3.92;;;19.00;47.40;;;;;;5040652;28;20044;-82
2021/11/11 13:16:59;;;;;;;10.40;4.13;;;19.00;47.60;;;;;;5050531;28;20027;-82
2021/11/11 13:19:55;;;;;;;12.07;4.05;;;18.90;47.60;;;;;;5052135;28;20028;-82
2021/11/11 13:25:46;;;;;;;6.80;3.90;;;19.00;47.80;;;;;;5042809;28;20082;-82
2021/11/11 13:59:55;;;;;;;9.07;3.95;;;18.60;48.30;;;;;;5032103;28;20033;-81
2021/11/11 15:57:11;;;;;;;13.52;7.18;;;15.50;57.10;;;;;;5070231;28;20112;-81
2021/11/11 16:00:05;;;;;;;11.80;7.65;;;15.50;57.20;;;;;;5023679;28;20051;-81
2021/11/11 16:27:20;;;;;;;12.97;7.73;;;14.60;59.10;;;;;;4972288;28;20049;-80
2021/11/11 16:29:47;;;;;;;11.10;7.27;;;14.60;59.00;;;;;;5034978;28;20014;-81
2021/11/11 16:32:14;;;;;;;10.10;7.23;;;14.60;59.50;;;;;;5032495;28;22029;-80
2021/11/11 16:34:39;;;;;;;18.37;8.53;;;14.50;59.10;;;;;;4987568;28;20044;-80
2021/11/11 16:37:07;;;;;;;15.43;10.73;;;14.40;59.30;;;;;;5022809;28;20022;-80
2021/11/11 16:39:33;;;;;;;13.17;8.97;;;14.30;59.60;;;;;;5011596;28;20026;-80
2021/11/11 16:41:59;;;;;;;15.77;7.67;;;14.30;59.90;;;;;;5021541;28;20393;-80
2021/11/11 16:44:25;;;;;;;12.70;8.90;;;14.20;59.80;;;;;;4998983;28;20058;-80
2021/11/11 16:46:52;;;;;;;13.40;8.60;;;14.20;59.80;;;;;;5008238;28;20037;-80